createdAt,value
2018-04-28T00:00:06.332Z,997.86
2018-04-28T00:01:59.195Z,997.87
2018-04-28T00:02:59.164Z,997.89
2018-04-28T00:04:52.014Z,997.85
2018-04-28T00:05:51.995Z,997.87
2018-04-28T00:07:44.864Z,997.85
2018-04-28T00:08:44.829Z,997.85
2018-04-28T00:10:37.675Z,997.85
2018-04-28T00:11:37.655Z,997.85
2018-04-28T00:13:30.519Z,997.82
2018-04-28T00:14:30.487Z,997.83
2018-04-28T00:16:23.339Z,997.87
2018-04-28T00:17:23.319Z,997.81
2018-04-28T00:19:16.186Z,997.85
2018-04-28T00:20:16.158Z,997.83
2018-04-28T00:22:09.007Z,997.83
2018-04-28T00:23:08.983Z,997.84
2018-04-28T00:25:01.923Z,997.84
2018-04-28T00:26:01.813Z,997.84
2018-04-28T00:27:54.671Z,997.82
2018-04-28T00:28:54.648Z,997.86
2018-04-28T00:30:47.512Z,997.88
2018-04-28T00:31:47.480Z,997.85
2018-04-28T00:33:40.332Z,997.88
2018-04-28T00:34:40.312Z,997.89
2018-04-28T00:36:33.177Z,997.92
2018-04-28T00:37:33.145Z,997.89
2018-04-28T00:39:25.995Z,997.89
2018-04-28T00:40:25.975Z,997.92
2018-04-28T00:42:18.839Z,997.92
2018-04-28T00:43:18.806Z,997.92
2018-04-28T00:45:11.718Z,997.93
2018-04-28T00:46:11.641Z,997.94
2018-04-28T00:48:04.505Z,997.96
2018-04-28T00:49:04.475Z,997.94
2018-04-28T00:50:57.323Z,997.98
2018-04-28T00:51:57.304Z,997.95
2018-04-28T00:53:50.167Z,997.96
2018-04-28T00:54:50.136Z,997.90
2018-04-28T00:56:42.990Z,997.96
2018-04-28T00:57:42.968Z,998.00
2018-04-28T00:59:35.835Z,997.93
2018-04-28T01:00:35.803Z,997.95
2018-04-28T01:02:28.654Z,997.93
2018-04-28T01:03:28.632Z,997.93
2018-04-28T01:05:21.496Z,997.94
2018-04-28T01:06:21.475Z,997.99
2018-04-28T01:08:14.316Z,997.96
2018-04-28T01:09:14.294Z,997.93
2018-04-28T01:11:07.166Z,997.92
2018-04-28T01:12:07.135Z,997.96
2018-04-28T01:13:59.985Z,997.90
2018-04-28T01:14:59.962Z,997.96
2018-04-28T01:16:52.826Z,997.95
2018-04-28T01:17:52.792Z,997.94
2018-04-28T01:19:45.649Z,997.97
2018-04-28T01:20:45.628Z,997.98
2018-04-28T01:22:38.488Z,997.93
2018-04-28T01:23:38.458Z,997.96
2018-04-28T01:25:31.311Z,997.96
2018-04-28T01:26:31.288Z,997.99
2018-04-28T01:28:24.151Z,998.01
2018-04-28T01:29:24.123Z,997.99
2018-04-28T01:31:16.969Z,998.06
2018-04-28T01:32:16.949Z,998.08
2018-04-28T01:34:09.813Z,998.09
2018-04-28T01:35:09.785Z,998.06
2018-04-28T01:37:02.630Z,998.05
2018-04-28T01:38:02.611Z,998.05
2018-04-28T01:39:55.482Z,998.05
2018-04-28T01:40:55.443Z,998.06
2018-04-28T01:42:48.299Z,998.08
2018-04-28T01:43:48.281Z,998.04
2018-04-28T01:45:41.144Z,998.07
2018-04-28T01:46:41.113Z,998.10
2018-04-28T01:48:33.964Z,998.14
2018-04-28T01:49:33.945Z,998.13
2018-04-28T01:51:26.813Z,998.12
2018-04-28T01:52:26.777Z,998.11
2018-04-28T01:54:19.627Z,998.12
2018-04-28T01:55:19.606Z,998.10
2018-04-28T01:57:12.471Z,998.09
2018-04-28T01:58:12.439Z,998.14
2018-04-28T02:00:05.293Z,998.13
2018-04-28T02:01:05.272Z,998.13
2018-04-28T02:02:58.135Z,998.14
2018-04-28T02:03:58.101Z,998.17
2018-04-28T02:05:50.951Z,998.17
2018-04-28T02:06:50.934Z,998.22
2018-04-28T02:08:43.790Z,998.29
2018-04-28T02:09:43.762Z,998.25
2018-04-28T02:11:36.613Z,998.28
2018-04-28T02:12:36.592Z,998.34
2018-04-28T02:14:29.458Z,998.34
2018-04-28T02:15:29.427Z,998.38
2018-04-28T02:17:22.274Z,998.36
2018-04-28T02:18:22.253Z,998.37
2018-04-28T02:20:15.116Z,998.44
2018-04-28T02:21:15.085Z,998.48
2018-04-28T02:23:07.937Z,998.51
2018-04-28T02:24:07.914Z,998.50
2018-04-28T02:26:00.779Z,998.51
2018-04-28T02:27:00.741Z,998.52
2018-04-28T02:28:53.596Z,998.53
2018-04-28T02:29:53.575Z,998.50
2018-04-28T02:31:46.443Z,998.54
2018-04-28T02:32:46.414Z,998.51
2018-04-28T02:34:39.259Z,998.53
2018-04-28T02:35:39.243Z,998.55
2018-04-28T02:37:32.104Z,998.53
2018-04-28T02:38:32.070Z,998.55
2018-04-28T02:40:24.925Z,998.54
2018-04-28T02:41:24.905Z,998.58
2018-04-28T02:43:18.343Z,998.58
2018-04-28T02:44:17.739Z,998.59
2018-04-28T02:46:10.584Z,998.57
2018-04-28T02:47:10.608Z,998.59
2018-04-28T02:49:03.425Z,998.63
2018-04-28T02:50:03.420Z,998.65
2018-04-28T02:51:56.251Z,998.67
2018-04-28T02:52:56.230Z,998.67
2018-04-28T02:54:49.096Z,998.63
2018-04-28T02:55:49.062Z,998.69
2018-04-28T02:57:41.918Z,998.69
2018-04-28T02:58:41.893Z,998.65
2018-04-28T03:00:34.758Z,998.69
2018-04-28T03:01:34.722Z,998.70
2018-04-28T03:03:27.572Z,998.72
2018-04-28T03:04:27.554Z,998.75
2018-04-28T03:06:20.419Z,998.81
2018-04-28T03:07:20.393Z,998.83
2018-04-28T03:09:13.234Z,998.90
2018-04-28T03:10:13.215Z,998.85
2018-04-28T03:12:06.081Z,998.90
2018-04-28T03:13:06.047Z,998.92
2018-04-28T03:14:58.895Z,998.93
2018-04-28T03:15:58.875Z,998.94
2018-04-28T03:17:51.738Z,998.92
2018-04-28T03:18:51.704Z,998.93
2018-04-28T03:20:44.565Z,998.96
2018-04-28T03:21:44.542Z,998.93
2018-04-28T03:23:37.427Z,998.92
2018-04-28T03:24:37.390Z,998.92
2018-04-28T03:26:30.240Z,998.87
2018-04-28T03:27:30.218Z,998.94
2018-04-28T03:29:23.080Z,998.88
2018-04-28T03:30:23.048Z,998.86
2018-04-28T03:32:15.897Z,998.85
2018-04-28T03:33:15.877Z,998.90
2018-04-28T03:35:08.747Z,998.94
2018-04-28T03:36:08.715Z,998.96
2018-04-28T03:38:01.560Z,998.98
2018-04-28T03:39:01.542Z,998.91
2018-04-28T03:40:54.406Z,998.92
2018-04-28T03:41:54.377Z,998.91
2018-04-28T03:43:47.221Z,998.98
2018-04-28T03:44:47.200Z,999.02
2018-04-28T03:46:40.068Z,999.04
2018-04-28T03:47:40.032Z,999.13
2018-04-28T03:49:32.881Z,999.16
2018-04-28T03:50:32.869Z,999.14
2018-04-28T03:52:25.727Z,999.17
2018-04-28T03:53:25.721Z,999.20
2018-04-28T03:55:18.545Z,999.16
2018-04-28T03:56:18.528Z,999.16
2018-04-28T03:58:11.386Z,999.17
2018-04-28T03:59:11.355Z,999.23
2018-04-28T04:01:04.207Z,999.26
2018-04-28T04:02:04.186Z,999.36
2018-04-28T04:03:57.055Z,999.33
2018-04-28T04:04:57.013Z,999.35
2018-04-28T04:06:49.864Z,999.32
2018-04-28T04:07:49.841Z,999.33
2018-04-28T04:09:42.707Z,999.38
2018-04-28T04:10:42.674Z,999.40
2018-04-28T04:12:35.520Z,999.38
2018-04-28T04:13:35.500Z,999.39
2018-04-28T04:15:28.361Z,999.40
2018-04-28T04:16:28.328Z,999.39
2018-04-28T04:18:21.255Z,999.36
2018-04-28T04:19:21.160Z,999.36
2018-04-28T04:21:14.031Z,999.36
2018-04-28T04:22:13.994Z,999.30
2018-04-28T04:24:06.846Z,999.33
2018-04-28T04:25:06.826Z,999.38
2018-04-28T04:26:59.687Z,999.38
2018-04-28T04:27:59.655Z,999.39
2018-04-28T04:29:52.508Z,999.52
2018-04-28T04:30:52.487Z,999.53
2018-04-28T04:32:45.401Z,999.53
2018-04-28T04:33:45.316Z,999.56
2018-04-28T04:35:38.166Z,999.56
2018-04-28T04:36:38.146Z,999.58
2018-04-28T04:38:31.008Z,999.59
2018-04-28T04:39:30.973Z,999.58
2018-04-28T04:41:23.823Z,999.64
2018-04-28T04:42:23.803Z,999.59
2018-04-28T04:44:16.665Z,999.61
2018-04-28T04:45:16.631Z,999.63
2018-04-28T04:47:09.480Z,999.58
2018-04-28T04:48:09.460Z,999.65
2018-04-28T04:50:02.324Z,999.66
2018-04-28T04:51:02.295Z,999.69
2018-04-28T04:52:55.140Z,999.77
2018-04-28T04:53:55.118Z,999.79
2018-04-28T04:55:47.985Z,999.84
2018-04-28T04:56:47.957Z,999.85
2018-04-28T04:58:40.804Z,999.89
2018-04-28T04:59:40.783Z,999.95
2018-04-28T05:01:33.645Z,999.93
2018-04-28T05:02:33.630Z,999.98
2018-04-28T05:04:26.464Z,999.99
2018-04-28T05:05:26.444Z,1000.04
2018-04-28T05:07:19.306Z,1000.06
2018-04-28T05:08:19.274Z,1000.00
2018-04-28T05:10:12.124Z,1000.05
2018-04-28T05:11:12.106Z,1000.06
2018-04-28T05:13:04.968Z,1000.06
2018-04-28T05:14:04.936Z,1000.03
2018-04-28T05:15:57.786Z,1000.04
2018-04-28T05:16:57.766Z,1000.02
2018-04-28T05:18:50.631Z,1000.04
2018-04-28T05:19:50.602Z,1000.03
2018-04-28T05:21:43.450Z,1000.08
2018-04-28T05:22:43.432Z,1000.09
2018-04-28T05:24:36.309Z,1000.10
2018-04-28T05:25:36.277Z,1000.08
2018-04-28T05:27:29.129Z,1000.19
2018-04-28T05:28:29.108Z,1000.24
2018-04-28T05:30:21.973Z,1000.18
2018-04-28T05:31:21.942Z,1000.26
2018-04-28T05:33:14.794Z,1000.21
2018-04-28T05:34:14.775Z,1000.30
2018-04-28T05:36:07.640Z,1000.37
2018-04-28T05:37:07.613Z,1000.36
2018-04-28T05:39:00.464Z,1000.43
2018-04-28T05:40:00.447Z,1000.48
2018-04-28T05:41:53.316Z,1000.49
2018-04-28T05:42:53.284Z,1000.49
2018-04-28T05:44:46.138Z,1000.52
2018-04-28T05:45:46.215Z,1000.54
2018-04-28T05:47:38.988Z,1000.69
2018-04-28T05:48:38.957Z,1000.77
2018-04-28T05:50:31.811Z,1000.66
2018-04-28T05:51:31.794Z,1000.70
2018-04-28T05:53:24.666Z,1000.70
2018-04-28T05:54:24.633Z,1000.68
2018-04-28T05:56:17.489Z,1000.62
2018-04-28T05:57:17.474Z,1000.66
2018-04-28T05:59:10.351Z,1000.63
2018-04-28T06:00:10.323Z,1000.59
2018-04-28T06:02:03.183Z,1000.62
2018-04-28T06:03:03.166Z,1000.71
2018-04-28T06:04:56.039Z,1000.74
2018-04-28T06:05:56.013Z,1000.71
2018-04-28T06:07:48.877Z,1000.75
2018-04-28T06:08:48.857Z,1000.75
2018-04-28T06:10:41.729Z,1000.79
2018-04-28T06:11:41.703Z,1000.78
2018-04-28T06:13:34.565Z,1000.73
2018-04-28T06:14:34.547Z,1000.76
2018-04-28T06:16:27.419Z,1000.70
2018-04-28T06:17:27.390Z,1000.69
2018-04-28T06:19:20.251Z,1000.70
2018-04-28T06:20:20.233Z,1000.69
2018-04-28T06:22:13.109Z,1000.81
2018-04-28T06:23:13.074Z,1000.78
2018-04-28T06:25:05.930Z,1000.75
2018-04-28T06:26:06.070Z,1000.76
2018-04-28T06:27:58.781Z,1000.76
2018-04-28T06:28:58.759Z,1000.85
2018-04-28T06:30:51.607Z,1000.91
2018-04-28T06:31:51.590Z,1000.96
2018-04-28T06:33:44.458Z,1000.86
2018-04-28T06:34:44.431Z,1000.85
2018-04-28T06:36:37.285Z,1000.87
2018-04-28T06:37:37.276Z,1000.88
2018-04-28T06:39:30.149Z,1000.93
2018-04-28T06:40:30.120Z,1000.92
2018-04-28T06:42:22.988Z,1000.96
2018-04-28T06:43:22.975Z,1000.98
2018-04-28T06:45:15.848Z,1000.95
2018-04-28T06:46:15.822Z,1000.97
2018-04-28T06:48:08.691Z,1001.03
2018-04-28T06:49:08.679Z,1000.98
2018-04-28T06:51:01.575Z,1001.03
2018-04-28T06:52:01.536Z,1001.07
2018-04-28T06:53:54.402Z,1001.09
2018-04-28T06:54:54.390Z,1001.03
2018-04-28T06:56:47.268Z,1001.10
2018-04-28T06:57:47.323Z,1001.09
2018-04-28T06:59:40.115Z,1000.95
2018-04-28T07:00:40.101Z,1001.00
2018-04-28T07:02:32.994Z,1001.03
2018-04-28T07:03:32.963Z,1001.13
2018-04-28T07:05:25.833Z,1001.17
2018-04-28T07:06:25.821Z,1001.15
2018-04-28T07:08:18.721Z,1001.09
2018-04-28T07:09:18.683Z,1001.02
2018-04-28T07:11:11.554Z,1001.01
2018-04-28T07:12:11.545Z,1000.98
2018-04-28T07:14:04.420Z,1001.03
2018-04-28T07:15:04.397Z,1001.05
2018-04-28T07:16:57.297Z,1000.98
2018-04-28T07:17:57.269Z,1001.00
2018-04-28T07:19:50.159Z,1000.95
2018-04-28T07:20:50.126Z,1000.93
2018-04-28T07:22:42.993Z,1000.92
2018-04-28T07:23:42.987Z,1000.87
2018-04-28T07:25:35.867Z,1000.93
2018-04-28T07:26:35.845Z,1000.97
2018-04-28T07:28:28.716Z,1001.02
2018-04-28T07:29:28.707Z,1001.00
2018-04-28T07:31:21.592Z,1001.10
2018-04-28T07:32:21.571Z,1001.08
2018-04-28T07:34:14.440Z,1000.97
2018-04-28T07:35:14.453Z,1000.92
2018-04-28T07:37:07.320Z,1001.04
2018-04-28T07:38:07.297Z,1001.15
2018-04-28T07:40:00.173Z,1001.07
2018-04-28T07:41:00.167Z,1001.07
2018-04-28T07:42:53.048Z,1001.03
2018-04-28T07:43:53.025Z,1001.03
2018-04-28T07:45:45.899Z,1000.92
2018-04-28T07:46:45.887Z,1000.94
2018-04-28T07:48:38.771Z,1000.97
2018-04-28T07:49:38.749Z,1000.88
2018-04-28T07:51:31.623Z,1000.88
2018-04-28T07:52:31.613Z,1000.88
2018-04-28T07:54:24.493Z,1000.84
2018-04-28T07:55:24.470Z,1000.86
2018-04-28T07:57:17.414Z,1000.86
2018-04-28T07:58:17.330Z,1000.87
2018-04-28T08:00:10.208Z,1000.82
2018-04-28T08:01:10.182Z,1000.87
2018-04-28T08:03:03.057Z,1000.78
2018-04-28T08:04:03.038Z,1000.79
2018-04-28T08:05:55.921Z,1000.88
2018-04-28T08:06:56.059Z,1000.85
2018-04-28T08:08:48.762Z,1000.76
2018-04-28T08:09:48.751Z,1000.71
2018-04-28T08:11:41.639Z,1000.73
2018-04-28T08:12:41.608Z,1000.71
2018-04-28T08:14:34.477Z,1000.78
2018-04-28T08:15:34.462Z,1000.80
2018-04-28T08:17:27.344Z,1000.83
2018-04-28T08:18:27.316Z,1000.79
2018-04-28T08:20:20.180Z,1000.73
2018-04-28T08:21:20.168Z,1000.67
2018-04-28T08:23:13.047Z,1000.68
2018-04-28T08:24:13.023Z,1000.74
2018-04-28T08:26:05.889Z,1000.84
2018-04-28T08:27:05.873Z,1000.73
2018-04-28T08:28:59.807Z,1000.84
2018-04-28T08:29:58.728Z,1000.91
2018-04-28T08:31:51.598Z,1001.19
2018-04-28T08:32:51.586Z,1001.24
2018-04-28T08:34:44.476Z,1001.32
2018-04-28T08:35:44.446Z,1001.41
2018-04-28T08:37:37.324Z,1001.17
2018-04-28T08:38:37.314Z,1001.17
2018-04-28T08:40:30.203Z,1001.27
2018-04-28T08:41:30.178Z,1001.26
2018-04-28T08:43:23.051Z,1001.31
2018-04-28T08:44:23.042Z,1001.46
2018-04-28T08:46:16.089Z,1002.06
2018-04-28T08:47:15.913Z,1002.44
2018-04-28T08:49:08.780Z,1004.15
2018-04-28T08:50:08.773Z,1004.36
2018-04-28T08:52:01.658Z,1004.83
2018-04-28T08:53:01.640Z,1004.83
2018-04-28T08:54:54.518Z,1004.88
2018-04-28T08:55:54.508Z,1004.80
2018-04-28T08:57:47.399Z,1005.07
2018-04-28T08:58:47.382Z,1003.13
2018-04-28T09:00:40.256Z,1003.67
2018-04-28T09:01:40.249Z,1005.19
2018-04-28T09:03:33.137Z,1004.68
2018-04-28T09:04:33.116Z,1001.68
2018-04-28T09:06:25.993Z,1001.03
2018-04-28T09:07:25.988Z,1001.54
2018-04-28T09:09:18.871Z,1000.71
2018-04-28T09:10:18.848Z,1000.80
2018-04-28T09:12:11.718Z,1000.98
2018-04-28T09:13:11.707Z,1000.86
2018-04-28T09:15:04.668Z,1000.90
2018-04-28T09:16:04.579Z,1000.95
2018-04-28T09:17:57.452Z,1003.85
2018-04-28T09:18:57.438Z,1001.73
2018-04-28T09:20:50.321Z,1000.90
2018-04-28T09:21:50.297Z,1001.10
2018-04-28T09:23:43.174Z,1001.36
2018-04-28T09:24:43.180Z,1001.40
2018-04-28T09:26:36.042Z,1002.74
2018-04-28T09:27:36.023Z,1002.96
2018-04-28T09:29:28.890Z,1001.26
2018-04-28T09:30:28.875Z,1001.54
2018-04-28T09:32:21.759Z,1000.94
2018-04-28T09:33:21.732Z,1001.87
2018-04-28T09:35:14.609Z,1002.18
2018-04-28T09:36:14.590Z,1001.77
2018-04-28T09:38:07.541Z,1003.63
2018-04-28T09:39:07.514Z,1001.05
2018-04-28T09:41:00.387Z,1001.01
2018-04-28T09:42:00.373Z,1001.73
2018-04-28T09:43:53.257Z,1001.34
2018-04-28T09:44:53.239Z,1000.80
2018-04-28T09:46:46.146Z,1000.76
2018-04-28T09:47:46.100Z,1000.72
2018-04-28T09:49:38.987Z,1000.68
2018-04-28T09:50:38.965Z,1000.67
2018-04-28T09:52:31.845Z,1000.56
2018-04-28T09:53:31.838Z,1000.56
2018-04-28T09:55:24.716Z,1000.55
2018-04-28T09:56:24.695Z,1000.58
2018-04-28T09:58:17.567Z,1000.50
2018-04-28T09:59:17.557Z,1000.47
2018-04-28T10:01:10.444Z,1000.43
2018-04-28T10:02:10.419Z,1000.46
2018-04-28T10:04:03.287Z,1000.43
2018-04-28T10:05:03.272Z,1000.41
2018-04-28T10:06:56.152Z,1000.44
2018-04-28T10:07:56.126Z,1000.39
2018-04-28T10:09:49.002Z,1000.33
2018-04-28T10:10:48.989Z,1000.30
2018-04-28T10:12:41.882Z,1000.34
2018-04-28T10:13:41.836Z,1000.32
2018-04-28T10:15:34.705Z,1000.27
2018-04-28T10:16:34.689Z,1000.31
2018-04-28T10:18:27.566Z,1000.29
2018-04-28T10:19:27.543Z,1000.22
2018-04-28T10:21:20.411Z,1000.37
2018-04-28T10:22:20.445Z,1000.37
2018-04-28T10:24:13.270Z,1000.31
2018-04-28T10:25:13.244Z,1000.29
2018-04-28T10:27:06.109Z,1000.26
2018-04-28T10:28:06.097Z,1000.21
2018-04-28T10:29:58.976Z,1000.30
2018-04-28T10:30:59.001Z,1000.38
2018-04-28T10:32:51.816Z,1000.34
2018-04-28T10:33:52.004Z,1000.34
2018-04-28T10:35:44.886Z,1000.29
2018-04-28T10:36:44.660Z,1000.30
2018-04-28T10:38:37.558Z,1000.31
2018-04-28T10:39:37.608Z,1000.25
2018-04-28T10:41:30.424Z,1000.18
2018-04-28T10:42:30.376Z,1000.17
2018-04-28T10:44:23.270Z,1000.36
2018-04-28T10:45:23.246Z,1000.26
2018-04-28T10:47:16.121Z,1000.14
2018-04-28T10:48:16.095Z,1000.09
2018-04-28T10:50:09.033Z,1000.07
2018-04-28T10:51:08.948Z,1000.03
2018-04-28T10:53:01.826Z,1000.00
2018-04-28T10:54:01.801Z,999.99
2018-04-28T10:55:54.667Z,999.94
2018-04-28T10:56:54.651Z,999.99
2018-04-28T10:58:47.616Z,999.98
2018-04-28T10:59:47.577Z,999.95
2018-04-28T11:01:40.456Z,999.95
2018-04-28T11:02:40.442Z,999.96
2018-04-28T11:04:33.331Z,999.88
2018-04-28T11:05:33.320Z,999.84
2018-04-28T11:07:26.175Z,999.80
2018-04-28T11:08:26.155Z,999.78
2018-04-28T11:10:19.032Z,999.80
2018-04-28T11:11:19.005Z,999.79
2018-04-28T11:13:11.875Z,999.78
2018-04-28T11:14:11.861Z,999.78
2018-04-28T11:16:04.732Z,999.78
2018-04-28T11:17:04.708Z,999.75
2018-04-28T11:18:58.199Z,999.74
2018-04-28T11:19:57.601Z,999.75
2018-04-28T11:21:52.064Z,999.75
2018-04-28T11:22:50.414Z,999.71
2018-04-28T11:24:43.273Z,999.76
2018-04-28T11:25:43.346Z,999.81
2018-04-28T11:27:36.149Z,999.84
2018-04-28T11:28:36.121Z,999.93
2018-04-28T11:30:28.986Z,999.94
2018-04-28T11:31:28.987Z,999.98
2018-04-28T11:33:21.845Z,1000.00
2018-04-28T11:34:21.823Z,1000.01
2018-04-28T11:36:14.735Z,1000.02
2018-04-28T11:37:14.675Z,1000.06
2018-04-28T11:39:07.554Z,999.92
2018-04-28T11:40:07.531Z,999.93
2018-04-28T11:42:00.400Z,1000.26
2018-04-28T11:43:00.388Z,1000.36
2018-04-28T11:44:53.269Z,1000.86
2018-04-28T11:45:53.247Z,1000.75
2018-04-28T11:47:46.116Z,1000.17
2018-04-28T11:48:46.105Z,1000.03
2018-04-28T11:50:38.985Z,1000.03
2018-04-28T11:51:38.962Z,999.88
2018-04-28T11:53:31.846Z,999.90
2018-04-28T11:54:31.823Z,1000.05
2018-04-28T11:56:24.731Z,1000.37
2018-04-28T11:57:24.726Z,1000.33
2018-04-28T11:59:17.555Z,1000.48
2018-04-28T12:00:17.579Z,1000.48
2018-04-28T12:02:10.442Z,1000.22
2018-04-28T12:03:10.412Z,1000.27
2018-04-28T12:05:03.327Z,999.79
2018-04-28T12:06:03.312Z,999.73
2018-04-28T12:07:56.196Z,999.67
2018-04-28T12:08:56.174Z,999.64
2018-04-28T12:10:49.049Z,999.51
2018-04-28T12:11:49.040Z,999.51
2018-04-28T12:13:41.924Z,999.53
2018-04-28T12:14:41.903Z,999.52
2018-04-28T12:16:34.780Z,999.49
2018-04-28T12:17:34.767Z,999.50
2018-04-28T12:19:27.655Z,999.54
2018-04-28T12:20:27.632Z,999.52
2018-04-28T12:22:20.511Z,999.49
2018-04-28T12:23:20.511Z,999.45
2018-04-28T12:25:13.382Z,999.36
2018-04-28T12:26:13.361Z,999.38
2018-04-28T12:28:06.234Z,999.36
2018-04-28T12:29:06.223Z,999.36
2018-04-28T12:30:59.111Z,999.32
2018-04-28T12:31:59.090Z,999.38
2018-04-28T12:33:51.960Z,999.34
2018-04-28T12:34:51.950Z,999.25
2018-04-28T12:36:44.848Z,999.20
2018-04-28T12:37:44.816Z,999.17
2018-04-28T12:39:37.685Z,999.10
2018-04-28T12:40:37.675Z,999.09
2018-04-28T12:42:30.557Z,999.12
2018-04-28T12:43:30.535Z,999.10
2018-04-28T12:45:23.417Z,999.49
2018-04-28T12:46:23.396Z,999.17
2018-04-28T12:48:16.286Z,999.14
2018-04-28T12:49:16.264Z,999.07
2018-04-28T12:51:09.138Z,998.99
2018-04-28T12:52:09.129Z,999.12
2018-04-28T12:54:02.016Z,998.99
2018-04-28T12:55:01.996Z,999.22
2018-04-28T12:56:54.872Z,999.05
2018-04-28T12:57:54.861Z,999.02
2018-04-28T12:59:47.751Z,998.99
2018-04-28T13:00:47.727Z,999.04
2018-04-28T13:02:40.597Z,999.01
2018-04-28T13:03:40.590Z,998.96
2018-04-28T13:05:33.474Z,999.00
2018-04-28T13:06:33.453Z,999.00
2018-04-28T13:08:26.339Z,998.97
2018-04-28T13:09:26.330Z,998.95
2018-04-28T13:11:19.221Z,998.93
2018-04-28T13:12:19.270Z,998.87
2018-04-28T13:14:12.081Z,998.83
2018-04-28T13:15:12.075Z,998.80
2018-04-28T13:17:04.964Z,998.81
2018-04-28T13:18:04.945Z,998.80
2018-04-28T13:19:57.820Z,998.68
2018-04-28T13:20:57.818Z,998.61
2018-04-28T13:22:50.727Z,998.60
2018-04-28T13:23:50.684Z,998.62
2018-04-28T13:25:43.559Z,998.52
2018-04-28T13:26:43.550Z,998.55
2018-04-28T13:28:36.472Z,998.59
2018-04-28T13:29:36.418Z,998.56
2018-04-28T13:31:29.302Z,998.55
2018-04-28T13:32:29.290Z,998.51
2018-04-28T13:34:22.188Z,998.52
2018-04-28T13:35:22.165Z,998.43
2018-04-28T13:37:15.049Z,998.42
2018-04-28T13:38:15.044Z,998.35
2018-04-28T13:40:07.933Z,998.34
2018-04-28T13:41:07.917Z,998.39
2018-04-28T13:43:00.790Z,998.38
2018-04-28T13:44:00.781Z,998.31
2018-04-28T13:45:53.669Z,998.30
2018-04-28T13:46:53.648Z,998.24
2018-04-28T13:48:46.524Z,998.10
2018-04-28T13:49:46.513Z,998.06
2018-04-28T13:51:39.398Z,998.12
2018-04-28T13:52:39.376Z,998.13
2018-04-28T13:54:32.254Z,998.12
2018-04-28T13:55:32.244Z,998.11
2018-04-28T13:57:25.132Z,998.08
2018-04-28T13:58:25.116Z,998.04
2018-04-28T14:00:17.984Z,997.92
2018-04-28T14:01:17.976Z,997.98
2018-04-28T14:03:10.863Z,997.94
2018-04-28T14:04:10.838Z,997.89
2018-04-28T14:06:03.713Z,997.88
2018-04-28T14:07:03.705Z,997.83
2018-04-28T14:08:56.597Z,997.89
2018-04-28T14:09:56.568Z,997.89
2018-04-28T14:11:49.449Z,997.94
2018-04-28T14:12:49.435Z,997.93
2018-04-28T14:14:42.318Z,997.90
2018-04-28T14:15:42.297Z,997.88
2018-04-28T14:17:35.171Z,997.88
2018-04-28T14:18:35.230Z,997.84
2018-04-28T14:20:28.051Z,997.76
2018-04-28T14:21:28.034Z,997.77
2018-04-28T14:23:20.902Z,997.77
2018-04-28T14:24:20.897Z,997.74
2018-04-28T14:26:13.781Z,997.70
2018-04-28T14:27:13.759Z,997.73
2018-04-28T14:29:06.630Z,997.78
2018-04-28T14:30:06.623Z,997.76
2018-04-28T14:31:59.573Z,997.75
2018-04-28T14:32:59.493Z,997.78
2018-04-28T14:34:52.378Z,997.71
2018-04-28T14:35:52.368Z,997.76
2018-04-28T14:37:45.249Z,997.75
2018-04-28T14:38:45.230Z,997.71
2018-04-28T14:40:38.098Z,997.72
2018-04-28T14:41:38.086Z,997.72
2018-04-28T14:43:30.968Z,997.69
2018-04-28T14:44:30.947Z,997.68
2018-04-28T14:46:24.042Z,997.73
2018-04-28T14:47:24.033Z,997.64
2018-04-28T14:49:16.912Z,997.66
2018-04-28T14:50:16.889Z,997.66
2018-04-28T14:52:09.760Z,997.63
2018-04-28T14:53:09.751Z,997.63
2018-04-28T14:55:02.631Z,997.58
2018-04-28T14:56:02.609Z,997.61
2018-04-28T14:57:55.479Z,997.57
2018-04-28T14:58:55.470Z,997.55
2018-04-28T15:00:48.356Z,997.52
2018-04-28T15:01:48.344Z,997.57
2018-04-28T15:03:41.207Z,997.54
2018-04-28T15:04:41.190Z,997.59
2018-04-28T15:06:34.080Z,997.53
2018-04-28T15:07:34.057Z,997.53
2018-04-28T15:09:26.924Z,997.48
2018-04-28T15:10:26.916Z,997.49
2018-04-28T15:12:19.800Z,997.40
2018-04-28T15:13:19.775Z,997.37
2018-04-28T15:15:12.650Z,997.35
2018-04-28T15:16:12.640Z,997.36
2018-04-28T15:18:05.523Z,997.30
2018-04-28T15:19:05.494Z,997.38
2018-04-28T15:20:58.366Z,997.31
2018-04-28T15:21:58.353Z,997.30
2018-04-28T15:23:51.238Z,997.33
2018-04-28T15:24:51.213Z,997.30
2018-04-28T15:26:44.081Z,997.32
2018-04-28T15:27:44.070Z,997.33
2018-04-28T15:29:36.948Z,997.36
2018-04-28T15:30:36.924Z,997.31
2018-04-28T15:32:29.792Z,997.38
2018-04-28T15:33:29.779Z,997.32
2018-04-28T15:35:22.658Z,997.35
2018-04-28T15:36:22.641Z,997.36
2018-04-28T15:38:15.499Z,997.33
2018-04-28T15:39:15.491Z,997.31
2018-04-28T15:41:08.435Z,997.26
2018-04-28T15:42:08.346Z,997.24
2018-04-28T15:44:01.209Z,997.25
2018-04-28T15:45:01.198Z,997.27
2018-04-28T15:46:54.111Z,997.25
2018-04-28T15:47:54.084Z,997.22
2018-04-28T15:49:46.956Z,997.24
2018-04-28T15:50:46.936Z,997.27
2018-04-28T15:52:39.820Z,997.28
2018-04-28T15:53:39.797Z,997.32
2018-04-28T15:55:32.665Z,997.27
2018-04-28T15:56:32.650Z,997.23
2018-04-28T15:58:25.528Z,997.21
2018-04-28T15:59:25.501Z,997.22
2018-04-28T16:01:18.374Z,997.17
2018-04-28T16:02:18.369Z,997.14
2018-04-28T16:04:11.239Z,997.16
2018-04-28T16:05:11.216Z,997.17
2018-04-28T16:07:04.086Z,997.16
2018-04-28T16:08:04.071Z,997.13
2018-04-28T16:09:56.949Z,997.11
2018-04-28T16:10:56.923Z,997.12
2018-04-28T16:12:49.789Z,997.08
2018-04-28T16:13:49.788Z,997.04
2018-04-28T16:15:42.651Z,997.02
2018-04-28T16:16:42.626Z,997.01
2018-04-28T16:18:35.496Z,997.00
2018-04-28T16:19:35.484Z,997.04
2018-04-28T16:21:28.359Z,997.02
2018-04-28T16:22:28.334Z,997.02
2018-04-28T16:24:21.201Z,997.04
2018-04-28T16:25:21.186Z,997.07
2018-04-28T16:27:14.084Z,997.03
2018-04-28T16:28:14.039Z,997.08
2018-04-28T16:30:06.913Z,997.10
2018-04-28T16:31:06.895Z,997.06
2018-04-28T16:32:59.805Z,997.09
2018-04-28T16:33:59.779Z,997.13
2018-04-28T16:35:52.647Z,997.06
2018-04-28T16:36:52.637Z,997.05
2018-04-28T16:38:45.541Z,997.05
2018-04-28T16:39:45.508Z,997.03
2018-04-28T16:41:38.373Z,997.02
2018-04-28T16:42:38.359Z,997.02
2018-04-28T16:44:31.240Z,997.04
2018-04-28T16:45:31.213Z,997.08
2018-04-28T16:47:24.079Z,997.10
2018-04-28T16:48:24.065Z,997.08
2018-04-28T16:50:16.945Z,997.05
2018-04-28T16:51:16.963Z,997.08
2018-04-28T16:53:09.779Z,997.06
2018-04-28T16:54:09.765Z,997.09
2018-04-28T16:56:02.643Z,997.10
2018-04-28T16:57:02.615Z,997.14
2018-04-28T16:58:55.485Z,997.17
2018-04-28T16:59:55.472Z,997.13
2018-04-28T17:01:48.352Z,997.15
2018-04-28T17:02:48.327Z,997.11
2018-04-28T17:04:41.185Z,997.11
2018-04-28T17:05:41.177Z,997.15
2018-04-28T17:07:34.048Z,997.11
2018-04-28T17:08:34.022Z,997.08
2018-04-28T17:10:26.885Z,997.05
2018-04-28T17:11:26.876Z,997.07
2018-04-28T17:13:19.745Z,997.10
2018-04-28T17:14:19.717Z,997.04
2018-04-28T17:16:12.578Z,997.05
2018-04-28T17:17:12.585Z,997.07
2018-04-28T17:19:05.443Z,997.12
2018-04-28T17:20:05.417Z,997.10
2018-04-28T17:21:58.276Z,997.18
2018-04-28T17:22:58.263Z,997.21
2018-04-28T17:24:51.178Z,997.20
2018-04-28T17:25:51.112Z,997.20
2018-04-28T17:27:43.980Z,997.26
2018-04-28T17:28:43.956Z,997.25
2018-04-28T17:30:36.830Z,997.24
2018-04-28T17:31:36.801Z,997.23
2018-04-28T17:33:29.664Z,997.12
2018-04-28T17:34:29.648Z,997.04
2018-04-28T17:36:22.520Z,996.82
2018-04-28T17:37:22.495Z,996.74
2018-04-28T17:39:15.355Z,996.60
2018-04-28T17:40:15.343Z,996.54
2018-04-28T17:42:08.221Z,996.44
2018-04-28T17:43:08.188Z,996.38
2018-04-28T17:45:01.049Z,996.52
2018-04-28T17:46:01.034Z,996.64